createdAt,value
2018-12-13T00:00:00.827Z,84.44
2018-12-13T00:01:09.105Z,84.77
2018-12-13T00:02:12.878Z,84.57
2018-12-13T00:03:17.349Z,84.47
2018-12-13T00:04:20.714Z,84.20
2018-12-13T00:05:24.232Z,84.41
2018-12-13T00:06:33.339Z,84.63
2018-12-13T00:07:34.862Z,84.31
2018-12-13T00:08:40.756Z,84.08
2018-12-13T00:09:44.341Z,84.53
2018-12-13T00:10:48.631Z,84.28
2018-12-13T00:11:54.239Z,84.72
2018-12-13T00:12:58.271Z,84.33
2018-12-13T00:14:01.456Z,84.17
2018-12-13T00:15:04.443Z,84.00
2018-12-13T00:16:08.003Z,84.23
2018-12-13T00:17:12.895Z,84.46
2018-12-13T00:18:17.133Z,84.14
2018-12-13T00:19:21.014Z,84.67
2018-12-13T00:20:25.518Z,84.40
2018-12-13T00:21:28.792Z,84.60
2018-12-13T00:22:33.262Z,84.75
2018-12-13T00:23:37.032Z,84.50
2018-12-13T00:24:41.334Z,84.36
2018-12-13T00:25:46.722Z,84.49
2018-12-13T00:26:52.338Z,84.80
2018-12-13T00:27:58.187Z,84.61
2018-12-13T00:29:04.416Z,84.38
2018-12-13T00:30:11.569Z,84.79
2018-12-13T00:31:19.827Z,84.66
2018-12-13T00:32:25.336Z,84.77
2018-12-13T00:33:37.336Z,84.69
2018-12-13T00:34:41.830Z,84.65
2018-12-13T00:35:46.637Z,84.45
2018-12-13T00:36:49.769Z,84.54
2018-12-13T00:37:54.321Z,85.22
2018-12-13T00:38:57.829Z,85.37
2018-12-13T00:40:00.962Z,85.51
2018-12-13T00:41:04.010Z,85.26
2018-12-13T00:42:07.391Z,85.51
2018-12-13T00:43:11.639Z,85.29
2018-12-13T00:44:16.148Z,85.50
2018-12-13T00:45:21.137Z,85.78
2018-12-13T00:46:26.070Z,86.06
2018-12-13T00:47:29.609Z,85.99
2018-12-13T00:48:33.639Z,86.02
2018-12-13T00:49:42.219Z,86.63
2018-12-13T00:50:47.402Z,87.79
2018-12-13T00:51:52.576Z,87.80
2018-12-13T00:52:55.488Z,87.96
2018-12-13T00:53:58.653Z,88.24
2018-12-13T00:55:01.565Z,88.11
2018-12-13T00:56:04.467Z,88.61
2018-12-13T00:57:08.591Z,87.95
2018-12-13T00:58:14.366Z,88.09
2018-12-13T00:59:18.295Z,87.90
2018-12-13T01:00:25.828Z,88.23
2018-12-13T01:01:29.164Z,88.46
2018-12-13T01:02:33.135Z,88.66
2018-12-13T01:03:36.403Z,88.54
2018-12-13T01:04:40.749Z,88.65
2018-12-13T01:05:44.310Z,88.52
2018-12-13T01:06:48.205Z,89.01
2018-12-13T01:07:52.009Z,89.59
2018-12-13T01:08:55.560Z,89.90
2018-12-13T01:09:58.807Z,89.79
2018-12-13T01:11:02.838Z,89.98
2018-12-13T01:12:06.789Z,90.53
2018-12-13T01:13:10.201Z,90.51
2018-12-13T01:14:13.228Z,90.71
2018-12-13T01:15:16.694Z,90.61
2018-12-13T01:16:25.114Z,90.49
2018-12-13T01:17:28.884Z,90.85
2018-12-13T01:18:32.476Z,91.30
2018-12-13T01:19:35.853Z,91.18
2018-12-13T01:20:38.863Z,91.23
2018-12-13T01:21:41.753Z,90.82
2018-12-13T01:22:49.568Z,91.38
2018-12-13T01:23:52.677Z,91.35
2018-12-13T01:24:56.230Z,90.66
2018-12-13T01:25:59.701Z,90.91
2018-12-13T01:27:03.767Z,91.62
2018-12-13T01:28:07.215Z,91.22
2018-12-13T01:29:10.463Z,90.80
2018-12-13T01:30:13.401Z,90.86
2018-12-13T01:31:17.513Z,90.97
2018-12-13T01:32:21.376Z,90.79
2018-12-13T01:33:26.091Z,90.10
2018-12-13T01:34:31.363Z,90.56
2018-12-13T01:35:35.539Z,90.16
2018-12-13T01:36:38.432Z,90.08
2018-12-13T01:37:41.572Z,89.78
2018-12-13T01:38:44.459Z,89.14
2018-12-13T01:39:47.445Z,89.03
2018-12-13T01:40:52.095Z,89.08
2018-12-13T01:41:56.950Z,89.28
2018-12-13T01:42:59.854Z,89.17
2018-12-13T01:44:03.578Z,89.51
2018-12-13T01:45:06.641Z,89.58
2018-12-13T01:46:10.430Z,88.93
2018-12-13T01:47:13.390Z,88.64
2018-12-13T01:48:16.660Z,88.81
2018-12-13T01:49:19.610Z,88.54
2018-12-13T01:50:22.532Z,89.09
2018-12-13T01:51:25.502Z,88.54
2018-12-13T01:52:29.279Z,88.87
2018-12-13T01:53:32.854Z,89.07
2018-12-13T01:54:37.647Z,89.03
2018-12-13T01:55:40.745Z,88.52
2018-12-13T01:56:45.655Z,89.08
2018-12-13T01:57:50.523Z,88.94
2018-12-13T01:58:54.226Z,88.88
2018-12-13T01:59:59.036Z,88.88
2018-12-13T02:01:02.248Z,88.31
2018-12-13T02:02:06.263Z,88.67
2018-12-13T02:03:09.203Z,89.46
2018-12-13T02:04:16.792Z,89.04
2018-12-13T02:05:20.456Z,89.23
2018-12-13T02:06:25.209Z,89.04
2018-12-13T02:07:29.256Z,89.46
2018-12-13T02:08:33.264Z,89.35
2018-12-13T02:09:37.511Z,89.93
2018-12-13T02:10:41.082Z,89.13
2018-12-13T02:11:46.103Z,88.84
2018-12-13T02:12:50.164Z,88.75
2018-12-13T02:13:54.896Z,88.64
2018-12-13T02:14:58.715Z,88.55
2018-12-13T02:16:04.874Z,88.87
2018-12-13T02:17:09.651Z,88.97
2018-12-13T02:18:13.974Z,88.95
2018-12-13T02:19:17.726Z,88.67
2018-12-13T02:20:22.524Z,88.22
2018-12-13T02:21:26.744Z,87.67
2018-12-13T02:22:32.226Z,87.77
2018-12-13T02:23:39.331Z,87.94
2018-12-13T02:24:44.680Z,88.36
2018-12-13T02:25:48.419Z,87.90
2018-12-13T02:26:52.900Z,88.21
2018-12-13T02:27:55.807Z,88.35
2018-12-13T02:28:59.312Z,88.42
2018-12-13T02:30:02.907Z,89.05
2018-12-13T02:31:05.869Z,88.68
2018-12-13T02:32:09.802Z,88.62
2018-12-13T02:33:13.318Z,88.97
2018-12-13T02:34:19.804Z,88.76
2018-12-13T02:35:23.266Z,89.09
2018-12-13T02:36:28.531Z,88.68
2018-12-13T02:37:32.586Z,89.23
2018-12-13T02:38:36.334Z,89.42
2018-12-13T02:39:39.556Z,89.26
2018-12-13T02:40:44.526Z,89.08
2018-12-13T02:41:48.844Z,88.31
2018-12-13T02:42:51.725Z,88.11
2018-12-13T02:43:54.776Z,88.14
2018-12-13T02:44:58.543Z,88.30
2018-12-13T02:46:02.993Z,88.05
2018-12-13T02:47:06.404Z,88.26
2018-12-13T02:48:11.180Z,87.92
2018-12-13T02:49:14.264Z,87.41
2018-12-13T02:50:18.783Z,87.54
2018-12-13T02:51:21.921Z,87.50
2018-12-13T02:52:26.313Z,87.58
2018-12-13T02:53:30.171Z,86.79
2018-12-13T02:54:35.510Z,86.92
2018-12-13T02:55:38.519Z,86.83
2018-12-13T02:56:41.959Z,86.55
2018-12-13T02:57:45.032Z,86.77
2018-12-13T02:58:49.137Z,86.66
2018-12-13T02:59:52.408Z,86.26
2018-12-13T03:00:56.729Z,86.13
2018-12-13T03:02:00.571Z,86.58
2018-12-13T03:03:04.947Z,86.31
2018-12-13T03:04:08.246Z,86.02
2018-12-13T03:05:13.274Z,85.88
2018-12-13T03:06:16.297Z,85.33
2018-12-13T03:07:24.322Z,85.64
2018-12-13T03:08:28.241Z,85.73
2018-12-13T03:09:32.335Z,85.41
2018-12-13T03:10:37.701Z,85.74
2018-12-13T03:11:41.877Z,84.99
2018-12-13T03:12:45.143Z,85.23
2018-12-13T03:13:48.964Z,85.33
2018-12-13T03:14:52.569Z,85.41
2018-12-13T03:15:58.659Z,84.54
2018-12-13T03:17:03.791Z,84.81
2018-12-13T03:18:08.311Z,84.70
2018-12-13T03:19:14.008Z,84.44
2018-12-13T03:20:17.238Z,84.57
2018-12-13T03:21:20.437Z,84.03
2018-12-13T03:22:24.933Z,84.07
2018-12-13T03:23:28.610Z,84.01
2018-12-13T03:24:32.127Z,83.79
2018-12-13T03:25:35.540Z,83.83
2018-12-13T03:26:38.784Z,83.45
2018-12-13T03:27:42.321Z,83.24
2018-12-13T03:28:45.861Z,83.66
2018-12-13T03:29:50.263Z,83.45
2018-12-13T03:30:53.820Z,83.17
2018-12-13T03:31:57.585Z,81.47
2018-12-13T03:33:00.977Z,81.89
2018-12-13T03:34:05.236Z,82.56
2018-12-13T03:35:09.679Z,82.06
2018-12-13T03:36:14.227Z,82.38
2018-12-13T03:37:20.865Z,82.35
2018-12-13T03:38:25.685Z,82.88
2018-12-13T03:39:29.114Z,82.84
2018-12-13T03:40:32.335Z,82.42
2018-12-13T03:41:37.395Z,82.90
2018-12-13T03:42:42.531Z,82.28
2018-12-13T03:43:47.147Z,82.71
2018-12-13T03:44:51.045Z,83.15
2018-12-13T03:45:54.428Z,82.35
2018-12-13T03:46:58.691Z,82.33
2018-12-13T03:48:01.928Z,82.18
2018-12-13T03:49:04.912Z,82.16
2018-12-13T03:50:08.325Z,82.24
2018-12-13T03:51:11.429Z,81.99
2018-12-13T03:52:14.787Z,82.23
2018-12-13T03:53:17.710Z,82.20
2018-12-13T03:54:20.868Z,82.03
2018-12-13T03:55:24.336Z,82.10
2018-12-13T03:56:27.880Z,81.90
2018-12-13T03:57:31.174Z,82.21
2018-12-13T03:58:34.023Z,81.88
2018-12-13T03:59:37.137Z,81.80
2018-12-13T04:00:40.101Z,82.45
2018-12-13T04:01:43.332Z,81.92
2018-12-13T04:02:46.525Z,82.25
2018-12-13T04:03:51.269Z,81.58
2018-12-13T04:04:54.527Z,81.45
2018-12-13T04:05:57.637Z,81.89
2018-12-13T04:07:00.753Z,82.12
2018-12-13T04:08:03.744Z,81.23
2018-12-13T04:09:07.030Z,81.64
2018-12-13T04:10:09.957Z,80.82
2018-12-13T04:11:13.702Z,79.73
2018-12-13T04:12:16.769Z,79.45
2018-12-13T04:13:19.780Z,79.08
2018-12-13T04:14:23.231Z,78.77
2018-12-13T04:15:27.316Z,78.85
2018-12-13T04:16:30.805Z,79.26
2018-12-13T04:17:34.344Z,79.29
2018-12-13T04:18:37.578Z,79.82
2018-12-13T04:19:40.817Z,79.98
2018-12-13T04:20:44.224Z,79.73
2018-12-13T04:21:47.745Z,79.14
2018-12-13T04:22:52.028Z,78.69
2018-12-13T04:23:55.308Z,78.97
2018-12-13T04:24:58.852Z,78.71
2018-12-13T04:26:02.100Z,79.12
2018-12-13T04:27:05.672Z,79.55
2018-12-13T04:28:09.968Z,78.59
2018-12-13T04:29:13.562Z,78.98
2018-12-13T04:30:17.177Z,78.75
2018-12-13T04:31:21.851Z,78.57
2018-12-13T04:32:25.163Z,78.73
2018-12-13T04:33:29.969Z,79.31
2018-12-13T04:34:33.040Z,79.60
2018-12-13T04:35:36.539Z,79.50
2018-12-13T04:36:40.264Z,79.82
2018-12-13T04:37:43.765Z,79.69
2018-12-13T04:38:47.161Z,79.92
2018-12-13T04:39:50.789Z,79.68
2018-12-13T04:40:54.109Z,80.44
2018-12-13T04:41:57.435Z,80.33
2018-12-13T04:43:00.572Z,79.10
2018-12-13T04:44:03.784Z,79.81
2018-12-13T04:45:06.971Z,80.28
2018-12-13T04:46:10.679Z,80.44
2018-12-13T04:47:14.112Z,80.36
2018-12-13T04:48:17.443Z,80.66
2018-12-13T04:49:21.326Z,80.21
2018-12-13T04:50:24.726Z,80.01
2018-12-13T04:51:28.257Z,80.27
2018-12-13T04:52:31.776Z,79.02
2018-12-13T04:53:35.181Z,78.91
2018-12-13T04:54:38.466Z,79.34
2018-12-13T04:55:42.834Z,78.85
2018-12-13T04:56:46.146Z,78.70
2018-12-13T04:57:49.496Z,78.16
2018-12-13T04:58:53.447Z,78.37
2018-12-13T04:59:57.336Z,78.24
2018-12-13T05:01:01.282Z,78.27
2018-12-13T05:02:05.325Z,78.64
2018-12-13T05:03:09.489Z,78.92
2018-12-13T05:04:12.752Z,78.63
2018-12-13T05:05:16.069Z,78.18
2018-12-13T05:06:20.462Z,78.78
2018-12-13T05:07:24.692Z,78.44
2018-12-13T05:08:28.484Z,77.58
2018-12-13T05:09:32.696Z,77.50
2018-12-13T05:10:36.055Z,77.58
2018-12-13T05:11:40.222Z,77.04
2018-12-13T05:12:43.606Z,77.39
2018-12-13T05:13:49.375Z,77.78
2018-12-13T05:14:52.658Z,77.37
2018-12-13T05:15:56.043Z,77.12
2018-12-13T05:16:59.598Z,77.08
2018-12-13T05:18:03.007Z,77.45
2018-12-13T05:19:06.242Z,77.25
2018-12-13T05:20:09.604Z,77.29
2018-12-13T05:21:12.719Z,77.52
2018-12-13T05:22:16.088Z,77.80
2018-12-13T05:23:19.470Z,78.38
2018-12-13T05:24:23.002Z,78.23
2018-12-13T05:25:27.138Z,77.59
2018-12-13T05:26:30.448Z,77.78
2018-12-13T05:27:34.104Z,78.40
2018-12-13T05:28:37.247Z,78.13
2018-12-13T05:29:40.134Z,77.91
2018-12-13T05:30:44.555Z,77.51
2018-12-13T05:31:48.731Z,77.60
2018-12-13T05:32:52.433Z,78.20
2018-12-13T05:33:55.996Z,77.79
2018-12-13T05:34:59.155Z,78.10
2018-12-13T05:36:02.841Z,77.78
2018-12-13T05:37:07.356Z,77.88
2018-12-13T05:38:11.659Z,78.35
2018-12-13T05:39:15.507Z,77.55
2018-12-13T05:41:37.347Z,77.48
2018-12-13T05:42:41.039Z,77.69
2018-12-13T05:43:48.599Z,77.86
2018-12-13T05:44:53.245Z,77.09
2018-12-13T05:45:56.876Z,77.76
2018-12-13T05:47:00.148Z,77.90
2018-12-13T05:48:04.614Z,78.56
2018-12-13T05:49:09.089Z,78.11
2018-12-13T05:50:12.667Z,78.19
2018-12-13T05:51:16.112Z,78.52
2018-12-13T05:52:20.448Z,78.49
2018-12-13T05:53:23.909Z,78.23
2018-12-13T05:54:28.316Z,78.47
2018-12-13T05:55:33.404Z,79.19
2018-12-13T05:56:37.508Z,78.74
2018-12-13T05:57:40.509Z,79.12
2018-12-13T05:58:44.020Z,79.35
2018-12-13T05:59:48.178Z,79.20
2018-12-13T06:00:51.601Z,79.35
2018-12-13T06:01:54.491Z,79.31
2018-12-13T06:02:58.248Z,79.67
2018-12-13T06:04:01.139Z,79.64
2018-12-13T06:05:04.001Z,79.83
2018-12-13T06:06:07.316Z,79.20
2018-12-13T06:07:11.417Z,79.92
2018-12-13T06:08:14.459Z,80.21
2018-12-13T06:09:19.316Z,79.41
2018-12-13T06:10:22.166Z,80.22
2018-12-13T06:11:25.068Z,79.68
2018-12-13T06:12:28.430Z,80.04
2018-12-13T06:13:32.776Z,79.78
2018-12-13T06:14:35.881Z,79.99
2018-12-13T06:15:39.603Z,79.33
2018-12-13T06:16:43.601Z,79.44
2018-12-13T06:17:46.462Z,80.29
2018-12-13T06:18:50.351Z,80.15
2018-12-13T06:19:53.424Z,79.96
2018-12-13T06:20:56.397Z,79.80
2018-12-13T06:22:00.159Z,80.04
2018-12-13T06:23:04.004Z,79.84
2018-12-13T06:24:07.485Z,79.80
2018-12-13T06:25:10.426Z,79.79
2018-12-13T06:26:13.310Z,79.89
2018-12-13T06:27:20.015Z,79.82
2018-12-13T06:28:23.133Z,80.17
2018-12-13T06:29:26.650Z,80.37
2018-12-13T06:45:03.297Z,79.20
2018-12-13T06:46:06.760Z,78.74
2018-12-13T06:47:09.790Z,78.75
2018-12-13T06:48:12.985Z,79.25
2018-12-13T06:49:16.649Z,78.90
2018-12-13T06:50:20.394Z,78.46
2018-12-13T06:51:24.307Z,78.49
2018-12-13T06:52:27.152Z,78.41
2018-12-13T06:53:31.186Z,79.23
2018-12-13T06:54:34.360Z,79.28
2018-12-13T06:55:38.157Z,78.47
2018-12-13T06:56:41.268Z,78.01
2018-12-13T06:57:44.294Z,78.40
2018-12-13T06:58:47.912Z,78.09
2018-12-13T06:59:51.004Z,78.64
2018-12-13T07:00:53.953Z,78.75
2018-12-13T07:01:57.461Z,78.42
2018-12-13T07:03:00.365Z,77.95
2018-12-13T07:04:03.825Z,78.68
2018-12-13T07:05:06.786Z,78.52
2018-12-13T07:06:10.938Z,78.49
2018-12-13T07:07:13.981Z,77.98
2018-12-13T07:08:17.229Z,77.89
2018-12-13T07:09:21.450Z,78.37
2018-12-13T07:10:24.394Z,78.38
2018-12-13T07:11:29.787Z,77.95
2018-12-13T07:12:33.615Z,78.11
2018-12-13T07:13:36.678Z,78.36
2018-12-13T07:14:40.689Z,77.41
2018-12-13T07:15:44.458Z,77.91
2018-12-13T07:16:49.009Z,77.88
2018-12-13T07:17:52.426Z,78.12
2018-12-13T07:18:55.593Z,78.39
2018-12-13T07:19:59.311Z,77.72
2018-12-13T07:21:03.400Z,78.18
2018-12-13T07:22:06.412Z,78.10
2018-12-13T07:23:09.690Z,78.44
2018-12-13T07:24:13.900Z,78.24
2018-12-13T07:25:16.944Z,78.14
2018-12-13T07:26:20.069Z,78.04
2018-12-13T07:27:24.557Z,78.06
2018-12-13T07:28:31.592Z,78.30
2018-12-13T07:29:35.901Z,78.54
2018-12-13T07:30:38.985Z,77.76
2018-12-13T07:31:41.985Z,78.26
2018-12-13T07:32:45.620Z,78.02
2018-12-13T07:33:49.526Z,77.92
2018-12-13T07:35:01.142Z,77.99
2018-12-13T07:36:03.537Z,77.83
2018-12-13T07:37:08.315Z,78.01
2018-12-13T07:38:14.268Z,78.50
2018-12-13T07:39:16.740Z,78.18
2018-12-13T07:40:19.734Z,77.97
2018-12-13T07:41:22.728Z,78.56
2018-12-13T07:42:25.954Z,77.81
2018-12-13T07:43:29.097Z,78.03
2018-12-13T07:44:32.282Z,78.04
2018-12-13T07:45:35.762Z,77.65
2018-12-13T07:46:38.784Z,77.78
2018-12-13T07:47:43.012Z,77.67
2018-12-13T07:48:46.299Z,77.55
2018-12-13T07:49:49.337Z,76.99
2018-12-13T07:50:52.302Z,77.23
2018-12-13T07:51:55.728Z,77.32
2018-12-13T07:52:58.673Z,76.62
2018-12-13T07:54:09.351Z,76.73
2018-12-13T07:55:14.023Z,77.12
2018-12-13T07:56:17.039Z,76.77
2018-12-13T07:57:20.002Z,76.23
2018-12-13T07:58:23.515Z,75.50
2018-12-13T07:59:26.494Z,75.67
2018-12-13T08:00:29.526Z,75.75
2018-12-13T08:01:32.678Z,75.46
2018-12-13T08:02:35.612Z,75.43
2018-12-13T08:03:38.503Z,75.36
2018-12-13T08:04:41.667Z,75.05
2018-12-13T08:05:44.550Z,75.20
2018-12-13T08:06:48.075Z,74.50
2018-12-13T08:07:51.057Z,74.12
2018-12-13T08:08:54.017Z,74.72
2018-12-13T08:09:57.016Z,74.76
2018-12-13T08:11:00.355Z,74.53
2018-12-13T08:12:03.929Z,73.99
2018-12-13T08:13:06.958Z,73.41
2018-12-13T08:14:10.717Z,73.66
2018-12-13T08:15:13.674Z,72.87
2018-12-13T08:16:17.196Z,72.79
2018-12-13T08:17:21.664Z,73.06
2018-12-13T08:18:24.817Z,73.46
2018-12-13T08:19:27.708Z,72.68
2018-12-13T08:20:32.286Z,72.62
2018-12-13T08:21:35.209Z,72.50
2018-12-13T08:22:38.305Z,72.17
2018-12-13T08:23:41.579Z,72.32
2018-12-13T08:24:45.108Z,71.80
2018-12-13T08:25:47.989Z,71.82
2018-12-13T08:26:50.866Z,71.61
2018-12-13T08:27:55.258Z,71.13
2018-12-13T08:28:58.115Z,70.91
2018-12-13T08:30:01.338Z,71.24
2018-12-13T08:31:05.370Z,71.16
2018-12-13T08:32:09.616Z,70.13
2018-12-13T08:33:12.565Z,70.59
2018-12-13T08:34:15.832Z,70.06
2018-12-13T08:35:18.739Z,70.22
2018-12-13T08:36:24.104Z,70.48
2018-12-13T08:37:26.967Z,70.04
2018-12-13T08:38:29.906Z,69.49
2018-12-13T08:39:33.993Z,69.65
2018-12-13T08:40:37.393Z,69.34
2018-12-13T08:41:40.334Z,69.63
2018-12-13T08:42:43.739Z,70.36
2018-12-13T08:43:46.690Z,70.41
2018-12-13T08:44:49.675Z,69.99
2018-12-13T08:45:52.587Z,70.74
2018-12-13T08:46:57.267Z,70.77
2018-12-13T08:48:00.291Z,70.33
2018-12-13T08:49:03.718Z,71.05
2018-12-13T08:50:07.435Z,71.44
2018-12-13T08:51:10.420Z,70.74
2018-12-13T08:52:13.834Z,70.81
2018-12-13T08:53:16.952Z,71.14
2018-12-13T08:54:19.883Z,71.39
2018-12-13T08:55:23.037Z,71.27
2018-12-13T08:56:27.567Z,72.34
2018-12-13T08:57:30.466Z,72.18
2018-12-13T08:58:33.332Z,71.71
2018-12-13T08:59:36.205Z,72.32
2018-12-13T09:00:39.674Z,72.46
2018-12-13T09:01:43.760Z,72.60
2018-12-13T09:02:46.664Z,72.68
2018-12-13T09:03:49.538Z,72.67
2018-12-13T09:04:52.516Z,72.29
2018-12-13T09:05:56.257Z,72.37
2018-12-13T09:07:00.170Z,72.02
2018-12-13T09:08:04.990Z,72.44
2018-12-13T09:09:07.817Z,72.31
2018-12-13T09:10:10.570Z,72.55
2018-12-13T09:11:13.747Z,73.20
2018-12-13T09:12:20.925Z,72.64
2018-12-13T09:13:24.334Z,72.95
2018-12-13T09:14:29.275Z,72.26
2018-12-13T09:15:32.821Z,73.14
2018-12-13T09:16:36.200Z,72.95
2018-12-13T09:17:39.480Z,74.40
2018-12-13T09:18:43.019Z,72.91
2018-12-13T09:19:49.300Z,72.47
2018-12-13T09:20:52.104Z,72.29
2018-12-13T09:21:54.839Z,72.20
2018-12-13T09:22:59.149Z,72.24
2018-12-13T09:24:02.680Z,72.17
2018-12-13T09:25:05.966Z,72.38
2018-12-13T09:26:10.149Z,72.20
2018-12-13T09:27:13.472Z,71.88
2018-12-13T09:28:16.262Z,72.73
2018-12-13T09:29:19.086Z,72.92
2018-12-13T09:30:22.548Z,72.05
2018-12-13T09:31:25.317Z,71.96
2018-12-13T09:32:28.484Z,72.90
2018-12-13T09:33:32.322Z,72.46
2018-12-13T09:34:35.722Z,72.45
2018-12-13T09:35:38.488Z,72.02
2018-12-13T09:36:42.321Z,72.14
2018-12-13T09:37:47.711Z,72.60
2018-12-13T09:38:51.382Z,71.91
2018-12-13T09:39:54.445Z,71.73
2018-12-13T09:40:57.202Z,72.52
2018-12-13T09:41:59.994Z,71.83
2018-12-13T09:43:03.851Z,71.68
2018-12-13T09:44:09.840Z,71.50
2018-12-13T09:45:12.592Z,72.09
2018-12-13T09:46:15.494Z,72.12
2018-12-13T09:47:18.996Z,71.93
2018-12-13T09:48:21.749Z,72.48
2018-12-13T09:49:24.580Z,72.49
2018-12-13T09:50:27.762Z,72.07
2018-12-13T09:51:30.547Z,72.03
2018-12-13T09:52:33.352Z,71.75
2018-12-13T09:53:36.331Z,72.40
2018-12-13T09:54:39.075Z,71.92
2018-12-13T09:55:41.864Z,72.40
2018-12-13T09:56:45.110Z,72.86
2018-12-13T09:57:48.207Z,72.08
2018-12-13T09:58:52.029Z,72.63
2018-12-13T09:59:54.857Z,72.42
2018-12-13T10:00:59.317Z,72.00
2018-12-13T10:02:05.658Z,73.28
2018-12-13T10:03:09.772Z,72.29
2018-12-13T10:04:12.533Z,72.31
2018-12-13T10:05:15.359Z,72.38
2018-12-13T10:06:18.222Z,71.84
2018-12-13T10:07:21.074Z,72.44
2018-12-13T10:08:23.915Z,72.41
2018-12-13T10:09:26.729Z,72.52
2018-12-13T10:10:30.516Z,72.08
2018-12-13T10:11:35.152Z,71.98
2018-12-13T10:12:38.104Z,72.15
2018-12-13T10:13:41.092Z,72.09
2018-12-13T10:14:44.453Z,71.27
2018-12-13T10:15:47.266Z,71.40
2018-12-13T10:16:50.193Z,72.12
2018-12-13T10:17:53.488Z,71.89
2018-12-13T10:18:56.228Z,71.99
2018-12-13T10:19:58.982Z,71.77
2018-12-13T10:21:02.729Z,72.07
2018-12-13T10:22:11.598Z,72.25
2018-12-13T10:23:11.206Z,72.06
2018-12-13T10:24:14.087Z,72.09
2018-12-13T10:25:17.087Z,71.98
2018-12-13T10:26:23.412Z,71.16
2018-12-13T10:27:26.716Z,70.60
2018-12-13T10:28:29.591Z,69.51
2018-12-13T10:29:32.678Z,66.97
2018-12-13T10:30:35.427Z,66.29
2018-12-13T10:31:39.088Z,64.48
2018-12-13T10:32:42.347Z,65.06
2018-12-13T10:33:45.420Z,64.41
2018-12-13T10:34:50.029Z,63.97
2018-12-13T10:35:53.490Z,64.06
2018-12-13T10:36:58.363Z,63.69
2018-12-13T10:38:02.377Z,63.19
2018-12-13T10:39:05.218Z,62.97
2018-12-13T10:40:08.426Z,62.87
2018-12-13T10:41:11.264Z,62.52
2018-12-13T10:42:14.049Z,62.35
2018-12-13T10:43:16.796Z,62.19
2018-12-13T10:44:24.413Z,61.49
2018-12-13T10:45:28.444Z,59.90
2018-12-13T10:46:31.422Z,59.59
2018-12-13T10:47:35.238Z,58.38
2018-12-13T10:48:38.118Z,58.77
2018-12-13T10:49:41.504Z,59.63
2018-12-13T10:50:44.324Z,59.51
2018-12-13T10:51:48.343Z,58.64
2018-12-13T10:52:51.606Z,58.67
2018-12-13T10:53:54.376Z,58.27
2018-12-13T10:54:57.146Z,56.71
2018-12-13T10:55:59.926Z,57.23
2018-12-13T10:57:03.399Z,56.55
2018-12-13T10:58:08.271Z,57.30
2018-12-13T10:59:13.266Z,56.61
2018-12-13T11:00:21.041Z,55.85
2018-12-13T11:01:28.737Z,55.25
2018-12-13T11:02:34.734Z,55.89
2018-12-13T11:03:43.452Z,57.08
2018-12-13T11:04:47.396Z,57.13
2018-12-13T11:05:52.335Z,55.36
2018-12-13T11:06:55.216Z,55.61
2018-12-13T11:07:58.678Z,54.86
2018-12-13T11:09:03.418Z,55.38
2018-12-13T11:10:06.369Z,56.04
2018-12-13T11:11:09.828Z,55.71
2018-12-13T11:12:13.234Z,56.05
2018-12-13T11:13:16.116Z,54.85
2018-12-13T11:14:19.574Z,55.49
2018-12-13T11:15:22.504Z,55.21
2018-12-13T11:16:25.699Z,54.96
2018-12-13T11:17:29.435Z,53.54
2018-12-13T11:18:34.003Z,54.37
2018-12-13T11:19:37.479Z,54.09
2018-12-13T11:20:40.383Z,53.75
2018-12-13T11:21:44.147Z,54.13
2018-12-13T11:22:48.812Z,53.83
2018-12-13T11:23:51.779Z,52.88
2018-12-13T11:24:55.546Z,53.19
2018-12-13T11:26:00.957Z,53.94
2018-12-13T11:27:03.777Z,53.87
2018-12-13T11:28:08.091Z,53.56
2018-12-13T11:29:11.089Z,53.52
2018-12-13T11:42:58.304Z,52.39
2018-12-13T11:45:12.168Z,51.40
2018-12-13T11:46:15.763Z,51.64
2018-12-13T11:47:19.835Z,52.38
2018-12-13T11:48:24.536Z,51.43
2018-12-13T11:49:28.293Z,50.74
2018-12-13T11:50:31.432Z,51.02
2018-12-13T11:51:34.330Z,51.20
2018-12-13T11:52:37.931Z,51.99
2018-12-13T11:53:41.248Z,51.43
2018-12-13T11:54:46.339Z,51.51
2018-12-13T11:55:51.917Z,51.28
2018-12-13T11:56:54.885Z,51.08
2018-12-13T11:57:57.907Z,50.73
2018-12-13T11:59:01.529Z,50.09
2018-12-13T12:00:04.537Z,50.15
2018-12-13T12:01:07.835Z,50.49
2018-12-13T12:02:11.555Z,50.15
2018-12-13T12:03:14.404Z,49.67
2018-12-13T12:04:18.471Z,50.77
2018-12-13T12:05:22.218Z,50.48
2018-12-13T12:06:25.070Z,49.71
2018-12-13T12:07:28.321Z,49.05
2018-12-13T12:08:32.168Z,50.01
2018-12-13T12:09:34.975Z,49.34
2018-12-13T12:10:37.843Z,49.55
2018-12-13T12:11:41.577Z,50.04
2018-12-13T12:12:45.156Z,49.78
2018-12-13T12:13:48.421Z,50.04
2018-12-13T12:14:51.393Z,50.59
2018-12-13T12:15:54.740Z,50.44
2018-12-13T12:16:57.569Z,49.92
2018-12-13T12:18:01.170Z,50.64
2018-12-13T12:19:04.683Z,51.03
2018-12-13T12:20:08.653Z,50.89
2018-12-13T12:21:11.532Z,49.89
2018-12-13T12:22:16.276Z,49.85
2018-12-13T12:23:20.715Z,50.02
2018-12-13T12:24:24.486Z,49.59
2018-12-13T12:25:27.684Z,50.65
2018-12-13T12:26:30.753Z,49.81
2018-12-13T12:27:34.270Z,50.57
2018-12-13T12:28:37.137Z,50.81
2018-12-13T12:29:40.714Z,50.38
2018-12-13T12:30:47.230Z,50.24
2018-12-13T12:31:52.410Z,50.79
2018-12-13T12:32:55.235Z,50.59
2018-12-13T12:33:58.895Z,50.29
2018-12-13T12:35:03.531Z,50.44
2018-12-13T12:36:06.332Z,51.33
2018-12-13T12:37:09.414Z,52.02
2018-12-13T12:38:12.616Z,52.38
2018-12-13T12:39:18.612Z,52.25
2018-12-13T12:40:21.767Z,52.24
2018-12-13T12:41:25.684Z,52.63
2018-12-13T12:42:29.806Z,52.49
2018-12-13T12:43:32.669Z,53.04
2018-12-13T12:44:38.294Z,53.12
2018-12-13T12:45:42.229Z,52.73
2018-12-13T12:46:45.107Z,52.97
2018-12-13T12:47:49.169Z,52.46
2018-12-13T12:48:52.047Z,53.23
2018-12-13T12:49:55.100Z,52.38
2018-12-13T12:50:58.420Z,53.68
2018-12-13T12:52:01.724Z,53.70
2018-12-13T12:53:05.618Z,53.27
2018-12-13T12:54:08.611Z,53.26
2018-12-13T12:55:11.449Z,53.54
2018-12-13T12:56:16.067Z,52.67
2018-12-13T12:57:21.372Z,52.70
2018-12-13T12:58:29.295Z,53.23
2018-12-13T12:59:34.208Z,53.35
2018-12-13T13:00:38.450Z,51.98
2018-12-13T13:01:41.290Z,52.96
2018-12-13T13:02:45.636Z,52.49
2018-12-13T13:03:50.120Z,52.61
2018-12-13T13:04:53.985Z,53.39
2018-12-13T13:05:57.242Z,54.21
2018-12-13T13:07:00.867Z,54.06
2018-12-13T13:08:03.830Z,54.49
2018-12-13T13:09:06.947Z,54.59
2018-12-13T13:10:10.190Z,54.50
2018-12-13T13:11:12.983Z,54.23
2018-12-13T13:12:15.798Z,53.58
2018-12-13T13:13:18.717Z,53.48
2018-12-13T13:14:22.531Z,53.55
2018-12-13T13:15:26.134Z,53.88
2018-12-13T13:16:29.366Z,53.96
2018-12-13T13:17:33.940Z,53.47
2018-12-13T13:18:39.143Z,55.28
2018-12-13T13:19:41.701Z,56.23
2018-12-13T13:20:45.135Z,55.94
2018-12-13T13:21:49.561Z,56.12
2018-12-13T13:22:52.683Z,55.65
2018-12-13T13:23:55.786Z,55.36
2018-12-13T13:24:58.673Z,56.26
2018-12-13T13:26:02.465Z,56.91
2018-12-13T13:27:05.327Z,56.64
2018-12-13T13:28:08.198Z,56.55
2018-12-13T13:29:11.496Z,57.24
2018-12-13T13:30:14.322Z,57.60
2018-12-13T13:31:17.224Z,57.39
2018-12-13T13:32:23.178Z,57.29
2018-12-13T13:33:27.284Z,58.05
2018-12-13T13:34:31.130Z,58.22
2018-12-13T13:35:34.245Z,59.14
2018-12-13T13:36:37.368Z,58.82
2018-12-13T13:37:40.377Z,58.48
2018-12-13T13:38:43.456Z,57.30
2018-12-13T13:39:47.462Z,58.13
2018-12-13T13:40:50.560Z,58.05
2018-12-13T13:41:53.793Z,57.22
2018-12-13T13:43:01.192Z,58.21
2018-12-13T13:44:04.151Z,58.32
2018-12-13T13:45:08.296Z,58.53
2018-12-13T13:46:11.349Z,58.51
2018-12-13T13:47:14.318Z,58.14
2018-12-13T13:48:17.705Z,58.52
2018-12-13T13:49:20.736Z,58.31
2018-12-13T13:50:23.774Z,58.02
2018-12-13T13:51:26.839Z,58.35
2018-12-13T13:52:29.809Z,57.37
2018-12-13T13:53:32.783Z,57.75
2018-12-13T13:54:36.448Z,58.97
2018-12-13T13:55:40.614Z,58.81
2018-12-13T13:56:44.359Z,58.96
2018-12-13T13:57:47.596Z,59.03
2018-12-13T13:58:51.246Z,58.69
2018-12-13T13:59:56.440Z,57.32
2018-12-13T14:01:00.729Z,57.96
2018-12-13T14:02:03.622Z,58.14
2018-12-13T14:03:07.423Z,58.97
2018-12-13T14:04:10.272Z,58.25
2018-12-13T14:05:13.175Z,57.80
2018-12-13T14:06:17.394Z,59.24
2018-12-13T14:07:20.281Z,59.67
2018-12-13T14:08:23.217Z,59.60
2018-12-13T14:09:26.121Z,60.64
2018-12-13T14:10:28.962Z,60.45